Time;durP1;ratioP1;P1;durP2;ratioP2;P2;SDS_P1;SDS_P2;PMS_P1;PMS_P2;Temp;Humidity;BMP_temperature;BMP_pressure;BME280_temperature;BME280_humidity;BME280_pressure;Samples;Min_cycle;Max_cycle;Signal;HPM_P1;HPM_P2
2022/09/07 00:00:56;;;;;;;9.60;1.75;;;16.70;99.90;;;;;;5008555;28;20026;-60
2022/09/07 00:03:22;;;;;;;12.82;1.67;;;16.70;99.90;;;;;;4999777;28;20034;-61
2022/09/07 00:05:50;;;;;;;8.30;1.52;;;16.80;99.90;;;;;;5007233;28;20485;-60
2022/09/07 00:08:17;;;;;;;12.55;1.38;;;16.80;99.90;;;;;;5006525;28;20026;-60
2022/09/07 00:10:55;;;;;;;13.18;1.30;;;16.80;99.90;;;;;;5003913;28;20124;-60
2022/09/07 00:13:22;;;;;;;10.98;1.30;;;16.80;99.90;;;;;;5006302;28;20048;-61
2022/09/07 00:15:47;;;;;;;12.70;2.70;;;16.90;99.90;;;;;;5007073;28;20026;-60
2022/09/07 00:18:13;;;;;;;14.20;1.58;;;16.80;99.90;;;;;;5009642;28;20080;-60
2022/09/07 00:20:39;;;;;;;10.82;1.40;;;16.90;99.90;;;;;;5003670;28;20089;-60
2022/09/07 00:23:04;;;;;;;9.13;1.38;;;17.00;99.90;;;;;;5010267;28;20064;-59
2022/09/07 00:25:30;;;;;;;9.63;2.03;;;17.10;99.90;;;;;;5009084;28;20116;-59
2022/09/07 00:27:56;;;;;;;6.13;1.23;;;17.10;99.90;;;;;;5009117;28;20030;-59
2022/09/07 00:30:21;;;;;;;15.95;2.50;;;17.10;99.90;;;;;;5010083;28;20034;-59
2022/09/07 00:32:47;;;;;;;13.07;2.83;;;17.10;99.90;;;;;;5010000;28;20105;-59
2022/09/07 00:35:12;;;;;;;14.07;1.80;;;17.10;99.90;;;;;;5010897;28;20556;-59
2022/09/07 00:37:38;;;;;;;15.48;2.40;;;17.10;99.90;;;;;;5007670;28;20504;-59
2022/09/07 00:40:04;;;;;;;12.68;1.83;;;17.10;99.90;;;;;;5011450;28;20025;-60
2022/09/07 00:42:30;;;;;;;18.38;2.53;;;17.10;99.90;;;;;;5009762;28;20033;-60
2022/09/07 00:45:05;;;;;;;15.80;2.42;;;17.10;99.90;;;;;;5010677;28;20390;-61
2022/09/07 00:47:43;;;;;;;10.77;1.35;;;17.10;99.90;;;;;;5000189;28;20397;-60
2022/09/07 00:50:26;;;;;;;17.10;1.70;;;17.20;99.90;;;;;;5004219;28;20490;-60
2022/09/07 00:53:18;;;;;;;9.80;1.80;;;17.20;99.90;;;;;;5011813;28;20148;-60
2022/09/07 00:55:46;;;;;;;11.25;1.65;;;17.30;99.90;;;;;;4986414;28;20033;-60
2022/09/07 00:58:12;;;;;;;14.38;1.90;;;17.40;99.90;;;;;;5010061;28;20386;-60
2022/09/07 01:00:40;;;;;;;10.50;1.67;;;17.50;99.90;;;;;;5008778;28;20037;-60
2022/09/07 01:03:07;;;;;;;10.15;1.70;;;17.50;99.90;;;;;;5011531;28;20034;-60
2022/09/07 01:05:45;;;;;;;13.40;2.20;;;17.50;99.90;;;;;;5009270;28;20033;-60
2022/09/07 01:08:12;;;;;;;9.95;1.38;;;17.50;99.90;;;;;;5008220;28;20030;-60
2022/09/07 01:10:38;;;;;;;11.25;1.63;;;17.60;99.90;;;;;;5010812;28;20125;-62
2022/09/07 01:13:04;;;;;;;18.02;2.45;;;17.60;99.90;;;;;;5006578;28;20134;-60
2022/09/07 01:15:38;;;;;;;14.25;2.65;;;17.50;99.90;;;;;;5007186;28;20036;-60
2022/09/07 01:18:32;;;;;;;15.77;1.85;;;17.50;99.90;;;;;;5010019;28;20061;-60
2022/09/07 01:21:36;;;;;;;16.33;1.65;;;17.50;99.90;;;;;;5010769;28;20033;-60
2022/09/07 01:24:25;;;;;;;14.75;2.08;;;17.50;99.90;;;;;;4998688;28;20038;-60
2022/09/07 01:27:20;;;;;;;13.63;1.65;;;17.60;99.90;;;;;;4999676;28;20038;-61
2022/09/07 01:29:59;;;;;;;12.40;2.05;;;17.60;99.90;;;;;;5008489;28;20026;-59
2022/09/07 01:32:49;;;;;;;16.38;2.53;;;17.50;99.90;;;;;;5008072;28;20037;-59
2022/09/07 01:35:39;;;;;;;14.13;2.50;;;17.60;99.90;;;;;;5005882;28;20023;-61
2022/09/07 01:38:20;;;;;;;14.73;1.60;;;17.60;99.90;;;;;;5005056;28;20030;-59
2022/09/07 01:40:53;;;;;;;11.85;2.03;;;17.70;99.90;;;;;;5007836;28;20367;-60
2022/09/07 01:43:25;;;;;;;12.35;1.85;;;17.70;99.90;;;;;;5006968;28;20046;-62
2022/09/07 01:45:52;;;;;;;;;;;17.70;99.90;;;;;;5009384;28;20034;-61
2022/09/07 01:48:21;;;;;;;16.33;2.33;;;17.70;99.90;;;;;;5010129;28;19909;-61
2022/09/07 01:50:52;;;;;;;11.98;2.55;;;17.70;99.90;;;;;;5007282;28;20076;-61
2022/09/07 01:53:27;;;;;;;15.13;1.77;;;17.80;99.90;;;;;;5010148;28;20520;-61
2022/09/07 01:56:07;;;;;;;17.33;2.47;;;17.70;99.90;;;;;;5010322;28;20026;-60
2022/09/07 01:58:44;;;;;;;16.95;1.88;;;17.80;99.90;;;;;;5005014;28;20022;-60
2022/09/07 02:01:19;;;;;;;17.35;2.00;;;17.70;99.90;;;;;;5006257;28;20385;-60
2022/09/07 02:03:58;;;;;;;21.48;2.60;;;17.70;99.90;;;;;;5002522;28;20084;-59
2022/09/07 02:06:47;;;;;;;11.65;2.53;;;17.70;99.90;;;;;;5008593;28;20108;-57
2022/09/07 02:09:24;;;;;;;13.30;2.53;;;17.70;99.90;;;;;;5007362;28;20030;-61
2022/09/07 02:11:50;;;;;;;13.52;2.58;;;17.70;99.90;;;;;;5002662;28;20489;-59
2022/09/07 02:14:30;;;;;;;15.05;2.30;;;17.80;99.90;;;;;;5009588;28;20087;-61
2022/09/07 02:17:05;;;;;;;15.77;2.92;;;17.70;99.90;;;;;;5010295;28;20030;-58
2022/09/07 02:19:37;;;;;;;18.15;2.50;;;17.70;99.90;;;;;;5003745;28;20113;-59
2022/09/07 02:22:10;;;;;;;18.77;2.50;;;17.70;99.90;;;;;;5010442;28;20058;-59
2022/09/07 02:24:40;;;;;;;12.93;2.00;;;17.70;99.90;;;;;;5006997;28;20088;-59
2022/09/07 02:27:16;;;;;;;17.73;2.78;;;17.70;99.90;;;;;;5007585;28;20076;-58
2022/09/07 02:29:42;;;;;;;12.85;2.10;;;17.70;99.90;;;;;;5002100;28;20057;-59
2022/09/07 02:32:08;;;;;;;9.73;1.70;;;17.70;99.90;;;;;;5006555;28;20038;-59
2022/09/07 02:34:34;;;;;;;17.73;2.45;;;17.70;99.90;;;;;;5008918;28;20079;-59
2022/09/07 02:37:04;;;;;;;17.02;2.03;;;17.80;99.90;;;;;;5007740;28;20038;-59
2022/09/07 02:39:29;;;;;;;14.63;2.15;;;17.80;99.90;;;;;;5008266;28;20026;-59
2022/09/07 02:41:55;;;;;;;16.90;2.38;;;17.80;99.90;;;;;;5003880;28;20056;-59
2022/09/07 02:44:30;;;;;;;15.70;2.08;;;17.80;99.90;;;;;;5007014;28;20041;-59
2022/09/07 02:47:18;;;;;;;12.80;2.67;;;17.80;99.90;;;;;;5008219;28;20114;-59
2022/09/07 02:49:52;;;;;;;20.15;3.00;;;17.80;99.90;;;;;;5008482;28;20044;-59
2022/09/07 02:52:42;;;;;;;10.82;2.10;;;17.70;99.90;;;;;;5010150;28;20112;-59
2022/09/07 02:55:31;;;;;;;15.80;2.22;;;17.70;99.90;;;;;;5001408;28;20512;-59
2022/09/07 02:58:03;;;;;;;15.15;2.58;;;17.70;99.90;;;;;;5003451;28;20027;-59
2022/09/07 03:00:34;;;;;;;13.50;2.10;;;17.80;99.90;;;;;;5008066;28;20080;-59
2022/09/07 03:03:07;;;;;;;17.90;2.67;;;17.70;99.90;;;;;;5009264;28;20220;-59
2022/09/07 03:05:58;;;;;;;12.13;2.30;;;17.80;99.90;;;;;;5003203;28;20295;-59
2022/09/07 03:08:48;;;;;;;13.73;2.53;;;17.80;99.90;;;;;;5005014;28;20042;-59
2022/09/07 03:11:14;;;;;;;9.93;2.13;;;17.80;99.90;;;;;;5008856;28;20038;-59
2022/09/07 03:13:39;;;;;;;15.10;3.08;;;17.80;99.90;;;;;;5006132;28;20091;-59
2022/09/07 03:16:05;;;;;;;26.25;2.45;;;17.80;99.90;;;;;;5009594;28;20040;-59
2022/09/07 03:18:31;;;;;;;13.75;2.05;;;17.80;99.90;;;;;;5007304;28;20375;-59
2022/09/07 03:20:57;;;;;;;17.80;2.63;;;17.80;99.90;;;;;;5009368;28;20526;-59
2022/09/07 03:23:22;;;;;;;19.33;3.20;;;17.80;99.90;;;;;;5004718;28;20549;-60
2022/09/07 03:25:48;;;;;;;17.85;1.98;;;17.80;99.90;;;;;;5009152;28;20033;-58
2022/09/07 03:28:15;;;;;;;21.00;5.00;;;17.70;99.90;;;;;;5008750;28;20382;-60
2022/09/07 03:30:46;;;;;;;14.25;2.03;;;17.80;99.90;;;;;;5007193;28;20478;-59
2022/09/07 03:33:14;;;;;;;10.07;2.35;;;17.80;99.90;;;;;;5009238;28;20065;-59
2022/09/07 03:35:44;;;;;;;12.80;1.77;;;17.80;99.90;;;;;;5005829;28;20022;-59
2022/09/07 03:38:10;;;;;;;21.42;2.85;;;17.80;99.90;;;;;;5008114;28;20029;-59
2022/09/07 03:40:41;;;;;;;8.70;1.25;;;17.80;99.90;;;;;;5001856;28;20694;-59
2022/09/07 03:43:07;;;;;;;7.13;1.30;;;17.40;99.90;;;;;;5006784;28;20041;-63
2022/09/07 03:46:25;;;;;;;16.58;2.35;;;16.60;99.90;;;;;;5007759;28;20022;-68
2022/09/07 03:48:52;;;;;;;9.82;1.00;;;15.90;99.90;;;;;;5008702;28;20033;-69
2022/09/07 03:51:18;;;;;;;8.88;1.70;;;15.40;99.90;;;;;;5012713;28;20026;-63
2022/09/07 03:53:45;;;;;;;12.52;2.22;;;15.30;99.90;;;;;;5007964;28;20033;-63
2022/09/07 03:56:14;;;;;;;17.95;1.80;;;15.30;99.90;;;;;;5012220;28;20120;-63
2022/09/07 03:58:41;;;;;;;9.85;1.80;;;15.30;99.90;;;;;;5010923;28;20509;-61
2022/09/07 04:01:14;;;;;;;13.93;2.13;;;15.30;99.90;;;;;;5012734;28;20060;-62
2022/09/07 04:03:40;;;;;;;19.63;1.58;;;15.30;99.90;;;;;;5005523;28;20105;-62
2022/09/07 04:06:06;;;;;;;16.60;1.80;;;15.30;99.90;;;;;;5013204;28;20045;-61
2022/09/07 04:08:34;;;;;;;17.17;2.40;;;15.20;99.90;;;;;;5010410;28;20034;-61
2022/09/07 04:11:02;;;;;;;12.18;1.77;;;15.20;99.90;;;;;;5012677;28;20049;-61
2022/09/07 04:13:30;;;;;;;14.95;2.15;;;15.20;99.90;;;;;;5009626;28;20034;-61
2022/09/07 04:15:56;;;;;;;12.60;2.00;;;15.20;99.90;;;;;;5011694;28;20032;-60
2022/09/07 04:18:23;;;;;;;16.35;1.98;;;15.20;99.90;;;;;;5010573;28;20168;-60
2022/09/07 04:20:49;;;;;;;21.70;1.77;;;15.30;99.90;;;;;;5012861;28;20026;-60
2022/09/07 04:23:19;;;;;;;21.33;2.92;;;15.30;99.90;;;;;;5010238;28;20079;-60
2022/09/07 04:25:51;;;;;;;11.63;2.45;;;15.30;99.90;;;;;;5012657;28;20026;-60
2022/09/07 04:28:19;;;;;;;19.48;1.92;;;15.30;99.90;;;;;;5011860;28;20040;-60
2022/09/07 04:30:46;;;;;;;19.65;1.85;;;15.30;99.90;;;;;;5012061;28;20106;-60
2022/09/07 04:33:12;;;;;;;19.58;2.78;;;15.30;99.90;;;;;;5011090;28;20045;-60
2022/09/07 04:35:39;;;;;;;18.90;3.05;;;15.30;99.90;;;;;;5011074;28;20081;-62
2022/09/07 04:38:06;;;;;;;18.13;2.17;;;15.30;99.90;;;;;;5012297;28;20033;-62
2022/09/07 04:40:32;;;;;;;23.55;2.28;;;15.30;99.90;;;;;;5010429;28;20034;-60
2022/09/07 04:42:58;;;;;;;15.07;2.47;;;15.30;99.90;;;;;;5010025;28;20052;-60
2022/09/07 04:45:24;;;;;;;25.38;4.65;;;15.40;99.90;;;;;;5010569;28;20029;-60
2022/09/07 04:47:50;;;;;;;25.77;4.05;;;15.30;99.90;;;;;;5011860;28;20085;-59
2022/09/07 04:50:17;;;;;;;20.63;4.82;;;15.30;99.90;;;;;;5012281;28;20474;-60
2022/09/07 04:52:43;;;;;;;19.13;3.22;;;15.40;99.90;;;;;;5007872;28;20084;-60
2022/09/07 04:55:10;;;;;;;28.13;4.00;;;15.40;99.90;;;;;;5010771;28;20438;-60
2022/09/07 04:57:36;;;;;;;20.10;3.00;;;15.50;99.90;;;;;;5009736;28;20030;-60
2022/09/07 05:00:07;;;;;;;34.78;4.38;;;15.40;99.90;;;;;;5009860;28;20022;-60
2022/09/07 05:02:33;;;;;;;23.90;3.17;;;15.40;99.90;;;;;;5009667;28;20032;-60
2022/09/07 05:04:58;;;;;;;31.20;4.18;;;15.50;99.90;;;;;;5011526;28;20120;-59
2022/09/07 05:07:26;;;;;;;26.55;3.08;;;15.40;99.90;;;;;;5009896;28;20030;-60
2022/09/07 05:09:52;;;;;;;22.60;3.13;;;15.40;99.90;;;;;;5011945;28;20078;-60
2022/09/07 05:12:18;;;;;;;22.33;3.03;;;15.40;99.90;;;;;;5010872;28;20065;-60
2022/09/07 05:14:43;;;;;;;21.48;3.28;;;15.50;99.90;;;;;;5009635;28;20042;-60
2022/09/07 05:17:09;;;;;;;25.92;2.90;;;15.50;99.90;;;;;;5011807;28;20026;-60
2022/09/07 05:19:35;;;;;;;29.48;3.72;;;15.40;99.90;;;;;;5009165;28;20030;-60
2022/09/07 05:22:00;;;;;;;22.05;3.25;;;15.40;99.90;;;;;;5010675;28;20975;-60
2022/09/07 05:24:27;;;;;;;18.63;3.05;;;15.30;99.90;;;;;;5009187;28;20030;-60
2022/09/07 05:26:53;;;;;;;23.55;2.92;;;15.30;99.90;;;;;;5009013;28;20077;-61
2022/09/07 05:29:19;;;;;;;27.23;3.72;;;15.40;99.90;;;;;;5009589;28;20042;-61
2022/09/07 05:31:45;;;;;;;26.75;3.60;;;15.40;99.90;;;;;;5000336;28;20029;-61
2022/09/07 05:34:10;;;;;;;26.40;3.33;;;15.40;99.90;;;;;;5011151;28;20458;-60
2022/09/07 05:36:36;;;;;;;29.38;3.92;;;15.40;99.90;;;;;;5012266;28;20025;-60
2022/09/07 05:39:04;;;;;;;35.50;4.68;;;15.50;99.90;;;;;;5008359;28;20034;-61
2022/09/07 05:41:30;;;;;;;25.85;3.92;;;15.50;99.90;;;;;;5007599;28;20026;-60
2022/09/07 05:43:55;;;;;;;27.08;3.33;;;15.60;99.90;;;;;;5010907;28;20052;-60
2022/09/07 05:46:22;;;;;;;18.50;3.63;;;15.60;99.90;;;;;;5005854;28;20107;-61
2022/09/07 05:48:48;;;;;;;17.85;2.97;;;15.60;99.90;;;;;;5005735;28;20121;-60
2022/09/07 05:51:14;;;;;;;22.88;2.92;;;15.60;99.90;;;;;;5013361;28;20060;-60
2022/09/07 05:53:43;;;;;;;20.17;3.45;;;15.60;99.90;;;;;;5008803;28;20065;-60
2022/09/07 05:56:09;;;;;;;21.98;3.13;;;15.60;99.90;;;;;;5003004;28;20026;-60
2022/09/07 05:58:35;;;;;;;21.45;3.42;;;15.70;99.90;;;;;;4994306;28;20030;-60
2022/09/07 06:01:05;;;;;;;24.13;2.80;;;15.60;99.90;;;;;;5007675;28;20037;-61
2022/09/07 06:03:31;;;;;;;21.50;3.30;;;15.60;99.90;;;;;;5001757;28;20026;-62
2022/09/07 06:06:06;;;;;;;29.63;2.95;;;15.60;99.90;;;;;;4999132;28;20105;-62
2022/09/07 06:08:33;;;;;;;19.30;3.58;;;15.70;99.90;;;;;;4993069;28;20148;-61
2022/09/07 06:11:05;;;;;;;21.13;3.40;;;15.80;99.90;;;;;;4993405;28;20023;-61
2022/09/07 06:13:31;;;;;;;29.73;3.90;;;15.90;99.90;;;;;;4996266;28;20418;-62
2022/09/07 06:16:05;;;;;;;18.05;2.85;;;15.90;99.90;;;;;;5002189;28;20025;-62
2022/09/07 06:18:35;;;;;;;25.45;4.43;;;15.90;99.90;;;;;;5004183;28;20277;-61
2022/09/07 06:21:06;;;;;;;20.90;3.58;;;16.00;99.90;;;;;;5005728;28;20036;-61
2022/09/07 06:23:33;;;;;;;22.88;2.90;;;16.10;99.90;;;;;;5001854;28;20087;-61
2022/09/07 06:25:59;;;;;;;17.08;3.20;;;16.20;99.90;;;;;;5008812;28;20115;-62
2022/09/07 06:28:41;;;;;;;20.13;3.53;;;16.30;99.90;;;;;;5003417;28;20025;-62
2022/09/07 06:31:12;;;;;;;21.48;3.33;;;16.50;99.90;;;;;;5007370;28;20025;-62
2022/09/07 06:33:39;;;;;;;15.30;3.17;;;16.70;99.90;;;;;;5004890;28;20041;-62
2022/09/07 06:36:15;;;;;;;20.60;3.67;;;16.80;99.90;;;;;;5008725;28;20033;-62
2022/09/07 06:38:41;;;;;;;23.02;4.13;;;16.90;99.90;;;;;;5005630;28;20034;-62
2022/09/07 06:41:19;;;;;;;24.80;3.00;;;17.00;99.90;;;;;;5007687;28;20108;-61
2022/09/07 06:43:45;;;;;;;17.63;2.38;;;17.10;99.90;;;;;;5003752;28;20107;-61
2022/09/07 06:46:11;;;;;;;14.35;3.50;;;17.20;99.90;;;;;;5006784;28;20108;-60
2022/09/07 06:48:37;;;;;;;20.83;2.80;;;17.30;99.90;;;;;;5006037;28;20092;-60
2022/09/07 06:51:10;;;;;;;22.35;2.97;;;17.30;99.90;;;;;;5008220;28;20033;-61
2022/09/07 06:53:37;;;;;;;19.65;3.67;;;17.30;99.90;;;;;;5006982;28;20040;-60
2022/09/07 06:56:08;;;;;;;19.55;2.80;;;17.30;99.90;;;;;;5008472;28;20026;-69
2022/09/07 06:58:34;;;;;;;18.95;2.28;;;17.40;99.90;;;;;;5006768;28;20159;-59
2022/09/07 07:01:23;;;;;;;21.10;2.83;;;17.50;99.90;;;;;;5004865;28;20041;-60
2022/09/07 07:03:50;;;;;;;19.20;2.72;;;17.60;99.90;;;;;;5004400;28;20480;-59
2022/09/07 07:06:16;;;;;;;15.80;2.20;;;17.60;99.90;;;;;;5006081;28;20018;-59
2022/09/07 07:08:42;;;;;;;21.83;2.50;;;17.60;99.90;;;;;;5004538;28;20029;-60
2022/09/07 07:11:10;;;;;;;13.90;2.45;;;17.60;99.90;;;;;;5008742;28;20025;-61
2022/09/07 07:13:37;;;;;;;18.55;1.95;;;17.70;99.90;;;;;;5004310;28;20038;-61
2022/09/07 07:16:05;;;;;;;16.67;2.47;;;17.80;99.90;;;;;;4999742;28;20485;-66
2022/09/07 07:18:32;;;;;;;18.10;3.40;;;18.00;99.90;;;;;;4994163;28;20117;-60
2022/09/07 07:21:00;;;;;;;19.17;2.20;;;18.10;99.90;;;;;;4995409;28;20029;-60
2022/09/07 07:23:26;;;;;;;26.08;3.00;;;18.10;99.90;;;;;;4992623;28;20026;-60
2022/09/07 07:25:51;;;;;;;20.35;2.35;;;18.10;99.90;;;;;;4996503;28;20040;-58
2022/09/07 07:28:17;;;;;;;17.35;2.92;;;18.10;99.90;;;;;;4994891;28;20058;-58
2022/09/07 07:30:43;;;;;;;16.92;2.28;;;17.90;99.90;;;;;;4996027;28;20100;-59
2022/09/07 07:33:08;;;;;;;15.05;2.53;;;17.90;99.90;;;;;;4993833;28;20401;-58
2022/09/07 07:35:34;;;;;;;16.00;2.28;;;17.80;99.90;;;;;;4993013;28;20104;-59
2022/09/07 07:38:00;;;;;;;16.20;2.55;;;17.90;99.90;;;;;;4997875;28;20034;-60
2022/09/07 07:40:26;;;;;;;11.20;2.20;;;17.90;99.90;;;;;;5006818;28;20110;-58
2022/09/07 07:42:51;;;;;;;15.50;2.17;;;18.20;99.90;;;;;;5005990;28;20573;-59
2022/09/07 07:45:17;;;;;;;15.00;3.03;;;18.40;99.90;;;;;;5005665;28;20486;-59
2022/09/07 07:47:48;;;;;;;11.98;2.15;;;18.50;99.90;;;;;;5003455;28;20324;-60
2022/09/07 07:50:14;;;;;;;14.48;2.28;;;18.60;99.90;;;;;;4997941;28;20026;-58
2022/09/07 07:52:40;;;;;;;13.75;2.95;;;18.80;99.90;;;;;;5006907;28;20493;-60
2022/09/07 07:55:07;;;;;;;19.70;3.35;;;19.00;99.90;;;;;;5005180;28;20072;-58
2022/09/07 07:57:32;;;;;;;14.20;2.35;;;19.10;99.90;;;;;;4997227;28;20030;-58
2022/09/07 07:59:58;;;;;;;19.15;3.95;;;19.30;99.90;;;;;;5004464;28;20099;-58
2022/09/07 08:02:24;;;;;;;11.07;1.65;;;19.30;99.90;;;;;;5002572;28;20030;-58
2022/09/07 08:04:51;;;;;;;12.73;2.95;;;19.20;99.90;;;;;;5006121;28;20029;-58
2022/09/07 08:07:18;;;;;;;16.83;2.90;;;19.20;99.90;;;;;;5007236;28;20116;-58
2022/09/07 08:09:45;;;;;;;18.58;2.95;;;19.40;99.90;;;;;;5007049;28;20026;-58
2022/09/07 08:12:17;;;;;;;15.18;3.00;;;19.50;99.90;;;;;;5000604;28;20508;-58
2022/09/07 08:14:45;;;;;;;17.05;2.70;;;19.40;99.90;;;;;;5002933;28;20026;-59
2022/09/07 08:17:13;;;;;;;20.08;3.20;;;19.30;99.90;;;;;;5003845;28;20030;-59
2022/09/07 08:19:39;;;;;;;15.57;2.42;;;19.50;99.90;;;;;;5005345;28;20030;-58
2022/09/07 08:22:05;;;;;;;15.10;2.85;;;19.50;99.90;;;;;;5008566;28;20030;-60
2022/09/07 08:24:31;;;;;;;19.60;3.80;;;19.50;99.90;;;;;;5006690;28;20500;-59
2022/09/07 08:26:57;;;;;;;17.90;2.65;;;19.40;99.90;;;;;;5008353;28;20066;-59
2022/09/07 08:29:23;;;;;;;17.85;2.80;;;19.40;99.90;;;;;;5004786;28;20045;-60
2022/09/07 08:31:49;;;;;;;13.15;2.05;;;19.30;99.90;;;;;;5004668;28;20042;-59
2022/09/07 08:34:15;;;;;;;18.05;2.72;;;19.30;99.90;;;;;;5003052;28;20056;-60
2022/09/07 08:36:41;;;;;;;17.08;2.47;;;19.20;99.90;;;;;;5009436;28;20501;-60
2022/09/07 08:39:06;;;;;;;8.75;1.80;;;19.20;99.90;;;;;;5002444;28;20033;-60
2022/09/07 08:41:41;;;;;;;20.17;2.83;;;19.30;99.90;;;;;;5008597;28;20033;-60
2022/09/07 08:44:21;;;;;;;9.52;1.63;;;19.50;99.90;;;;;;5009431;28;20042;-60
2022/09/07 08:46:56;;;;;;;17.90;2.15;;;19.70;99.90;;;;;;5008772;28;20034;-59
2022/09/07 08:49:32;;;;;;;16.15;2.50;;;19.80;99.90;;;;;;5004379;28;20041;-58
2022/09/07 08:52:07;;;;;;;11.02;2.10;;;19.90;99.90;;;;;;5002463;28;20034;-59
2022/09/07 08:54:34;;;;;;;14.43;2.30;;;20.10;99.90;;;;;;5004305;28;20034;-61
2022/09/07 08:57:02;;;;;;;16.13;2.67;;;20.00;99.90;;;;;;5006156;28;20117;-58
2022/09/07 08:59:50;;;;;;;17.67;2.63;;;20.00;99.90;;;;;;5007922;28;20034;-59
2022/09/07 09:02:17;;;;;;;13.77;2.17;;;20.00;99.90;;;;;;5010988;28;20127;-58
2022/09/07 09:04:43;;;;;;;14.18;1.77;;;19.80;99.90;;;;;;5003562;28;20052;-60
2022/09/07 09:07:21;;;;;;;21.63;3.65;;;19.70;99.90;;;;;;5010845;28;20482;-58
2022/09/07 09:10:05;;;;;;;13.38;2.45;;;19.80;99.90;;;;;;5006070;28;20030;-58
2022/09/07 09:12:40;;;;;;;13.68;2.90;;;19.90;99.90;;;;;;5005842;28;20453;-58
2022/09/07 09:15:20;;;;;;;13.25;3.10;;;20.10;99.90;;;;;;5009823;28;20057;-58
2022/09/07 09:18:06;;;;;;;15.05;2.17;;;20.20;99.90;;;;;;5009578;28;20022;-59
2022/09/07 09:20:54;;;;;;;17.83;2.25;;;20.30;99.90;;;;;;5007134;28;20041;-59
2022/09/07 09:23:24;;;;;;;14.57;2.03;;;20.50;99.90;;;;;;5009319;28;20054;-59
2022/09/07 09:25:55;;;;;;;15.23;2.45;;;20.40;99.90;;;;;;5006409;28;20042;-59
2022/09/07 14:04:38;;;;;;;12.38;1.70;;;22.70;99.90;;;;;;5137465;27;20431;-64
2022/09/07 14:07:05;;;;;;;10.02;1.92;;;23.30;99.90;;;;;;5118729;27;20382;-64
2022/09/07 14:09:32;;;;;;;7.97;1.95;;;22.90;99.90;;;;;;5128534;27;20019;-65
2022/09/07 14:11:58;;;;;;;15.25;1.70;;;23.20;99.90;;;;;;5125829;27;20047;-64
2022/09/07 14:14:31;;;;;;;8.48;1.83;;;23.10;99.90;;;;;;5134002;27;20103;-62
2022/09/07 14:16:59;;;;;;;14.32;1.60;;;23.10;99.90;;;;;;5125926;27;20021;-64
2022/09/07 14:19:49;;;;;;;10.65;1.48;;;23.10;99.90;;;;;;5125322;27;20034;-64
2022/09/07 14:22:19;;;;;;;10.13;1.70;;;22.80;99.90;;;;;;5125436;27;20374;-63
2022/09/07 14:24:55;;;;;;;14.30;1.80;;;22.70;99.90;;;;;;5135630;27;20587;-63
2022/09/07 14:27:40;;;;;;;13.85;1.67;;;22.50;99.90;;;;;;5133517;27;20027;-63
2022/09/07 14:30:32;;;;;;;16.00;2.47;;;22.60;99.90;;;;;;5130017;27;20031;-63
2022/09/07 14:33:16;;;;;;;9.77;1.75;;;23.20;99.90;;;;;;5125848;27;20035;-64
2022/09/07 14:35:42;;;;;;;9.43;1.95;;;24.00;99.90;;;;;;5131057;27;20089;-63
2022/09/07 14:38:25;;;;;;;12.05;1.52;;;24.20;99.90;;;;;;5122624;27;20110;-64
2022/09/07 14:40:55;;;;;;;11.85;1.65;;;24.10;99.90;;;;;;5122206;27;20106;-64
2022/09/07 14:43:26;;;;;;;8.10;1.70;;;24.10;99.90;;;;;;5132810;27;20493;-65
2022/09/07 14:45:52;;;;;;;13.48;1.90;;;24.70;99.90;;;;;;5122886;27;20015;-65
2022/09/07 14:48:21;;;;;;;11.13;1.70;;;25.80;99.90;;;;;;5124865;27;20138;-64
2022/09/07 14:50:48;;;;;;;11.20;2.60;;;26.50;99.90;;;;;;5122427;27;20027;-64
2022/09/07 14:53:18;;;;;;;10.60;1.42;;;26.90;99.90;;;;;;5125910;27;20045;-65
2022/09/07 14:55:45;;;;;;;9.35;1.98;;;26.70;99.90;;;;;;5127565;27;20482;-63
2022/09/07 14:58:14;;;;;;;6.90;1.25;;;26.60;99.90;;;;;;5133917;27;20022;-65
2022/09/07 15:00:43;;;;;;;9.27;1.48;;;26.90;99.90;;;;;;5110371;27;20465;-64
2022/09/07 15:03:32;;;;;;;6.72;1.17;;;27.30;99.90;;;;;;5124452;27;20042;-64
2022/09/07 15:06:02;;;;;;;5.80;1.40;;;27.70;99.90;;;;;;5127389;27;20092;-64
2022/09/07 15:08:42;;;;;;;6.70;1.55;;;29.00;99.90;;;;;;5129850;27;20034;-64
2022/09/07 15:11:19;;;;;;;7.63;1.33;;;30.20;97.80;;;;;;5121919;27;20030;-64
2022/09/07 15:13:57;;;;;;;9.20;1.58;;;31.00;95.70;;;;;;5124116;27;20019;-63
2022/09/07 15:16:25;;;;;;;8.57;1.30;;;31.20;93.40;;;;;;5112525;27;20102;-64
2022/09/07 15:18:55;;;;;;;8.32;1.60;;;29.80;94.20;;;;;;5120415;27;20114;-64
2022/09/07 15:21:23;;;;;;;9.52;1.30;;;30.00;94.70;;;;;;5111726;27;20040;-64
2022/09/07 15:23:53;;;;;;;6.70;1.45;;;31.40;92.70;;;;;;5107983;27;20505;-62
2022/09/07 15:26:20;;;;;;;3.30;1.20;;;31.90;90.80;;;;;;5119927;27;20122;-64
2022/09/07 15:28:47;;;;;;;10.13;1.30;;;31.80;89.40;;;;;;5118220;27;20036;-62
2022/09/07 15:31:18;;;;;;;8.40;1.30;;;32.20;85.70;;;;;;5119183;27;20163;-62
2022/09/07 15:33:44;;;;;;;6.90;1.50;;;32.90;80.50;;;;;;5108267;27;20363;-63
2022/09/07 15:36:15;;;;;;;7.15;2.20;;;33.90;77.40;;;;;;5117592;27;20035;-61
2022/09/07 15:38:41;;;;;;;9.85;1.98;;;34.50;73.30;;;;;;5093940;28;20027;-62
2022/09/07 15:41:07;;;;;;;8.35;1.45;;;34.00;71.20;;;;;;5104957;27;20559;-63
2022/09/07 15:43:33;;;;;;;16.35;2.38;;;34.50;67.90;;;;;;5110679;27;20062;-62
2022/09/07 15:45:58;;;;;;;10.48;2.00;;;33.70;67.00;;;;;;5106671;27;20051;-62
2022/09/07 15:48:24;;;;;;;6.65;1.35;;;34.10;67.30;;;;;;5120938;27;20080;-62
2022/09/07 15:50:51;;;;;;;8.38;2.22;;;35.00;62.50;;;;;;5118309;27;20024;-62
2022/09/07 15:53:17;;;;;;;5.90;1.58;;;35.30;61.40;;;;;;5110517;27;20864;-62
2022/09/07 15:55:42;;;;;;;8.13;1.63;;;34.50;59.70;;;;;;5108062;27;20102;-62
2022/09/07 15:58:11;;;;;;;9.13;2.17;;;33.90;60.50;;;;;;5108801;27;20509;-62
2022/09/07 16:00:36;;;;;;;10.32;1.70;;;34.40;60.50;;;;;;5121074;27;20624;-63
2022/09/07 16:03:02;;;;;;;9.30;1.95;;;34.70;59.30;;;;;;5110502;27;20110;-62
2022/09/07 16:05:28;;;;;;;6.85;1.95;;;34.80;58.50;;;;;;5109872;27;20115;-63
2022/09/07 16:07:53;;;;;;;8.90;1.45;;;34.80;57.40;;;;;;5113315;27;20024;-62
2022/09/07 16:10:19;;;;;;;8.20;1.90;;;34.70;57.60;;;;;;5111079;27;20383;-62
2022/09/07 16:12:45;;;;;;;5.38;1.50;;;35.30;57.60;;;;;;5115612;27;20027;-62
2022/09/07 16:15:11;;;;;;;12.23;1.70;;;35.40;56.10;;;;;;5112815;27;20482;-62
2022/09/07 16:17:37;;;;;;;6.65;1.92;;;34.60;56.80;;;;;;5109171;27;20038;-61
2022/09/07 16:20:03;;;;;;;8.07;1.38;;;34.30;57.50;;;;;;5124103;27;20432;-63
2022/09/07 16:22:29;;;;;;;6.13;1.30;;;34.30;57.50;;;;;;5121752;27;20058;-62
2022/09/07 16:24:55;;;;;;;14.48;3.47;;;34.50;57.20;;;;;;5114500;27;20111;-62
2022/09/07 16:27:20;;;;;;;7.68;1.60;;;33.00;57.40;;;;;;5110446;28;20023;-62
2022/09/07 16:29:46;;;;;;;8.27;2.13;;;31.50;61.60;;;;;;5119386;27;20064;-61
2022/09/07 16:32:12;;;;;;;5.38;1.40;;;31.40;65.30;;;;;;5113252;27;20491;-62
2022/09/07 16:34:38;;;;;;;7.03;1.85;;;31.10;64.00;;;;;;5112717;27;20077;-62
2022/09/07 16:37:06;;;;;;;9.15;1.40;;;29.60;70.20;;;;;;5126064;27;20015;-62
2022/09/07 16:39:32;;;;;;;7.70;1.40;;;28.50;78.80;;;;;;5123456;27;20173;-62
2022/09/07 16:41:58;;;;;;;9.80;1.45;;;27.10;89.30;;;;;;5115429;27;20027;-61
2022/09/07 16:44:24;;;;;;;9.07;1.92;;;26.50;92.00;;;;;;5124631;27;20031;-61
2022/09/07 16:46:53;;;;;;;7.93;1.52;;;26.00;94.80;;;;;;5119844;27;20432;-62
2022/09/07 16:49:18;;;;;;;9.38;1.20;;;25.20;97.90;;;;;;5112794;27;20046;-62
2022/09/07 16:51:44;;;;;;;8.65;1.60;;;24.90;99.90;;;;;;5118100;27;20019;-62
2022/09/07 16:54:12;;;;;;;9.60;1.92;;;25.00;99.90;;;;;;5113380;27;20588;-62
2022/09/07 16:56:38;;;;;;;10.52;1.70;;;24.60;99.90;;;;;;5111178;27;20042;-62
2022/09/07 16:59:05;;;;;;;8.05;1.33;;;24.40;99.90;;;;;;5119001;27;20099;-62
2022/09/07 17:01:36;;;;;;;10.50;1.58;;;24.20;99.90;;;;;;5129710;27;20027;-62
2022/09/07 17:04:03;;;;;;;13.48;1.52;;;23.90;99.90;;;;;;5110472;27;20127;-63
2022/09/07 17:06:30;;;;;;;11.20;1.48;;;23.70;99.90;;;;;;5105681;27;20015;-63
2022/09/07 17:08:58;;;;;;;10.70;1.90;;;23.20;99.90;;;;;;5118831;27;20024;-62
2022/09/07 17:11:28;;;;;;;7.70;1.88;;;23.00;99.90;;;;;;5113125;27;20251;-64
2022/09/07 17:13:56;;;;;;;12.65;1.65;;;22.80;99.90;;;;;;5117101;27;20110;-63
2022/09/07 17:16:24;;;;;;;10.35;1.52;;;22.30;99.90;;;;;;5120567;27;20562;-63
2022/09/07 17:18:50;;;;;;;11.38;1.92;;;22.30;99.90;;;;;;5120482;27;20115;-63
2022/09/07 17:21:16;;;;;;;7.03;1.50;;;22.30;99.90;;;;;;5112800;27;20490;-62
2022/09/07 17:23:43;;;;;;;12.07;1.90;;;22.30;99.90;;;;;;5114038;27;20105;-63
2022/09/07 17:26:11;;;;;;;11.60;2.03;;;22.20;99.90;;;;;;5122170;27;20027;-62
2022/09/07 17:28:37;;;;;;;7.32;2.17;;;22.20;99.90;;;;;;5096581;28;20035;-63